Time;durP1;ratioP1;P1;durP2;ratioP2;P2;SDS_P1;SDS_P2;PMS_P1;PMS_P2;Temp;Humidity;BMP_temperature;BMP_pressure;BME280_temperature;BME280_humidity;BME280_pressure;Samples;Min_cycle;Max_cycle;Signal;HPM_P1;HPM_P2
2022/03/23 00:01:28;;;;;;;3.90;3.53;;;7.70;47.50;7.70;97558.00;;;;4929197;28;20305;-83
2022/03/23 00:03:55;;;;;;;6.90;3.50;;;7.70;47.50;7.70;97556.00;;;;4929020;28;20225;-83
2022/03/23 00:06:22;;;;;;;4.13;3.73;;;7.60;48.00;7.70;97553.00;;;;4943659;28;20194;-84
2022/03/23 00:08:51;;;;;;;7.00;3.97;;;7.60;47.60;7.60;97555.00;;;;4961767;23;20231;-87
2022/03/23 00:11:18;;;;;;;4.07;3.67;;;7.60;47.80;7.60;97549.00;;;;4959959;28;20233;-86
2022/03/23 00:13:45;;;;;;;5.37;4.77;;;7.50;47.90;7.60;97549.00;;;;4958663;28;20225;-85
2022/03/23 00:16:13;;;;;;;6.20;4.30;;;7.50;48.00;7.50;97551.00;;;;4943569;28;20681;-85
2022/03/23 00:18:40;;;;;;;4.90;4.23;;;7.50;48.00;7.50;97545.00;;;;4942431;29;20256;-85
2022/03/23 00:21:07;;;;;;;5.43;4.00;;;7.50;48.10;7.50;97562.00;;;;4942236;28;20271;-85
2022/03/23 00:23:34;;;;;;;5.03;4.53;;;7.40;48.00;7.50;97551.00;;;;4943086;28;20571;-85
2022/03/23 00:26:03;;;;;;;5.60;4.70;;;7.40;48.10;7.40;97536.00;;;;4941581;28;20284;-85
2022/03/23 00:28:30;;;;;;;4.33;3.93;;;7.40;48.30;7.40;97557.00;;;;4941423;28;20251;-85
2022/03/23 00:30:58;;;;;;;4.80;4.20;;;7.40;48.30;7.40;97555.00;;;;4942558;28;20586;-85
2022/03/23 00:33:25;;;;;;;5.03;4.50;;;7.30;47.90;7.30;97557.00;;;;4941478;28;20216;-84
2022/03/23 00:35:53;;;;;;;5.53;4.83;;;7.30;47.80;7.30;97554.00;;;;4941907;28;20658;-85
2022/03/23 00:38:20;;;;;;;5.30;4.70;;;7.30;47.90;7.30;97553.00;;;;4938783;28;20217;-86
2022/03/23 00:40:48;;;;;;;6.10;4.53;;;7.30;47.80;7.30;97554.00;;;;4940988;28;20204;-85
2022/03/23 00:43:17;;;;;;;4.87;4.37;;;7.30;47.70;7.30;97552.00;;;;4940191;29;20239;-85
2022/03/23 00:45:44;;;;;;;4.67;3.73;;;7.30;47.80;7.30;97562.00;;;;4940552;28;20271;-85
2022/03/23 00:48:11;;;;;;;4.97;3.70;;;7.30;47.80;7.30;97561.00;;;;4940094;28;20617;-85
2022/03/23 00:50:38;;;;;;;5.57;4.03;;;7.30;47.90;7.20;97552.00;;;;4940349;28;20243;-85
2022/03/23 00:53:06;;;;;;;6.00;3.60;;;7.30;47.90;7.20;97548.00;;;;4939541;28;20200;-86
2022/03/23 00:55:33;;;;;;;5.77;4.10;;;7.20;47.90;7.20;97556.00;;;;4939477;28;20228;-85
2022/03/23 00:58:00;;;;;;;5.57;4.10;;;7.20;48.00;7.10;97548.00;;;;4943133;28;20655;-85
2022/03/23 01:00:29;;;;;;;4.13;3.57;;;7.10;48.10;7.10;97540.00;;;;4942939;28;20209;-85
2022/03/23 01:02:57;;;;;;;4.80;4.30;;;7.10;48.40;7.00;97547.00;;;;4964470;28;20232;-85
2022/03/23 01:05:24;;;;;;;5.77;4.20;;;7.10;48.50;7.00;97545.00;;;;4942781;28;20248;-85
2022/03/23 01:07:51;;;;;;;5.67;4.50;;;7.00;48.60;7.00;97548.00;;;;4931990;28;20292;-85
2022/03/23 01:10:18;;;;;;;7.00;4.50;;;7.00;48.70;6.90;97550.00;;;;4927940;29;20232;-85
2022/03/23 01:12:47;;;;;;;6.60;4.27;;;6.90;48.90;6.90;97548.00;;;;4937210;28;20201;-85
2022/03/23 01:15:19;;;;;;;5.70;4.43;;;6.90;49.10;6.80;97546.00;;;;4937034;28;20221;-86
2022/03/23 01:17:47;;;;;;;6.13;4.47;;;7.40;49.40;6.80;97538.00;;;;4939955;29;20228;-85
2022/03/23 01:20:17;;;;;;;5.70;4.40;;;6.80;49.30;6.70;97539.00;;;;4940852;28;20235;-85
2022/03/23 01:22:45;;;;;;;6.33;5.03;;;6.80;49.40;6.70;97535.00;;;;4941931;28;20580;-85
2022/03/23 01:25:13;;;;;;;6.33;4.60;;;6.70;49.40;6.70;97537.00;;;;4940702;28;20229;-85
2022/03/23 01:27:43;;;;;;;7.07;4.80;;;7.40;49.80;6.70;97531.00;;;;4942359;28;20196;-85
2022/03/23 01:30:13;;;;;;;5.83;4.67;;;6.70;49.60;6.60;97534.00;;;;4941099;28;20219;-85
2022/03/23 01:32:43;;;;;;;4.80;4.27;;;6.60;49.70;6.60;97533.00;;;;4940909;29;20240;-85
2022/03/23 01:35:13;;;;;;;6.73;4.80;;;6.60;49.90;6.60;97532.00;;;;4940771;28;20250;-85
2022/03/23 01:37:40;;;;;;;5.37;4.27;;;6.60;50.00;6.50;97531.00;;;;4932862;28;20205;-85
2022/03/23 01:40:11;;;;;;;5.20;4.30;;;6.50;50.00;6.50;97527.00;;;;4942328;28;20207;-85
2022/03/23 01:42:39;;;;;;;6.47;4.33;;;6.50;50.30;6.40;97521.00;;;;4941444;28;20227;-85
2022/03/23 01:45:09;;;;;;;7.20;5.37;;;6.50;50.40;6.40;97525.00;;;;4939615;28;20297;-85
2022/03/23 01:47:37;;;;;;;7.43;4.80;;;6.50;50.50;6.40;97521.00;;;;4939630;28;20203;-85
2022/03/23 01:50:11;;;;;;;4.63;4.13;;;6.40;50.60;6.30;97524.00;;;;4940167;28;20196;-85
2022/03/23 01:52:40;;;;;;;4.63;4.10;;;6.30;50.60;6.30;97523.00;;;;4938667;29;20625;-85
2022/03/23 01:55:11;;;;;;;5.20;4.70;;;6.30;50.70;6.30;97519.00;;;;4938151;29;20755;-84
2022/03/23 01:57:46;;;;;;;5.30;4.40;;;6.30;50.80;6.20;97523.00;;;;4939317;28;20248;-85
2022/03/23 02:00:16;;;;;;;4.87;4.30;;;6.20;50.90;6.20;97531.00;;;;4939856;28;20235;-85
2022/03/23 02:02:44;;;;;;;5.70;4.23;;;6.20;50.90;6.10;97524.00;;;;4944490;28;20703;-86
2022/03/23 02:05:14;;;;;;;6.10;4.40;;;6.30;51.00;6.10;97521.00;;;;4943662;28;20251;-87
2022/03/23 02:07:45;;;;;;;5.23;4.40;;;6.10;51.10;6.10;97528.00;;;;4954523;28;20212;-85
2022/03/23 02:10:12;;;;;;;5.03;4.53;;;6.10;51.10;6.10;97534.00;;;;4934783;29;20240;-85
2022/03/23 02:12:40;;;;;;;6.17;4.63;;;6.50;51.40;6.10;97530.00;;;;4942368;28;20618;-85
2022/03/23 02:15:14;;;;;;;5.43;4.67;;;6.10;51.40;6.00;97533.00;;;;4941252;28;20233;-85
2022/03/23 02:17:43;;;;;;;7.67;4.70;;;6.10;51.70;6.00;97530.00;;;;4938921;28;20585;-85
2022/03/23 02:20:14;;;;;;;5.57;4.70;;;6.10;51.70;5.90;97533.00;;;;4943320;28;20669;-85
2022/03/23 02:22:43;;;;;;;5.10;4.57;;;6.10;51.70;6.00;97526.00;;;;4942593;28;20232;-85
2022/03/23 02:25:10;;;;;;;6.00;4.80;;;6.00;51.60;5.90;97524.00;;;;4942504;28;20216;-85
2022/03/23 02:27:40;;;;;;;7.53;5.07;;;6.20;51.60;5.90;97530.00;;;;4942556;28;20251;-85
2022/03/23 02:30:10;;;;;;;5.90;4.73;;;6.60;51.80;5.90;97535.00;;;;4942311;28;20585;-85
2022/03/23 02:32:38;;;;;;;6.20;4.97;;;6.00;51.60;5.80;97523.00;;;;4941767;28;20208;-85
2022/03/23 02:35:07;;;;;;;5.60;4.67;;;5.90;51.50;5.80;97524.00;;;;4942856;28;20395;-85
2022/03/23 02:37:35;;;;;;;5.00;4.50;;;5.90;51.50;5.80;97533.00;;;;4943174;28;20197;-85
2022/03/23 02:40:05;;;;;;;5.27;4.77;;;5.90;51.50;5.80;97501.00;;;;4943266;28;20220;-85
2022/03/23 02:42:32;;;;;;;7.00;4.63;;;5.90;51.70;5.80;97502.00;;;;4942731;29;20199;-85
2022/03/23 02:45:00;;;;;;;5.97;4.60;;;5.90;51.60;5.80;97532.00;;;;4942422;28;20252;-85
2022/03/23 02:47:27;;;;;;;6.97;4.70;;;5.90;51.60;5.80;97524.00;;;;4942387;28;20228;-85
2022/03/23 02:49:54;;;;;;;5.20;4.33;;;5.90;51.70;5.80;97522.00;;;;4940911;28;20208;-85
2022/03/23 02:52:24;;;;;;;5.00;4.50;;;5.80;51.60;5.70;97514.00;;;;4938077;28;20217;-84
2022/03/23 03:03:55;;;;;;;6.53;4.73;;;5.80;51.90;5.60;97524.00;;;;4907254;28;20216;-85
2022/03/23 03:06:22;;;;;;;5.57;4.37;;;5.70;51.70;5.50;97516.00;;;;4943976;28;20252;-84
2022/03/23 03:08:52;;;;;;;4.90;4.37;;;5.80;52.20;5.50;97519.00;;;;4944615;28;20209;-85
2022/03/23 03:11:22;;;;;;;7.83;4.37;;;5.60;52.20;5.50;97520.00;;;;4943934;28;20805;-85
2022/03/23 03:13:52;;;;;;;6.20;4.67;;;5.60;52.20;5.40;97524.00;;;;4944662;28;20304;-85
2022/03/23 03:16:21;;;;;;;4.60;4.13;;;5.60;52.20;5.40;97522.00;;;;4943927;28;20207;-85
2022/03/23 03:18:48;;;;;;;5.40;4.60;;;5.60;52.30;5.40;97526.00;;;;4943227;28;20229;-85
2022/03/23 03:21:17;;;;;;;5.47;3.83;;;6.10;52.60;5.40;97502.00;;;;4945005;28;20236;-85
2022/03/23 03:23:47;;;;;;;5.53;4.20;;;5.50;52.40;5.40;97522.00;;;;4940866;28;20228;-84
2022/03/23 03:26:16;;;;;;;4.97;4.23;;;5.50;52.50;5.40;97520.00;;;;4944571;28;20216;-85
2022/03/23 03:28:47;;;;;;;5.03;4.20;;;5.50;52.50;5.40;97521.00;;;;4943133;28;20215;-84
2022/03/23 03:31:16;;;;;;;6.87;4.27;;;5.40;53.10;5.30;97518.00;;;;4943462;28;20203;-85
2022/03/23 03:33:44;;;;;;;4.60;3.77;;;5.40;52.60;5.30;97519.00;;;;4942106;28;20224;-85
2022/03/23 03:36:11;;;;;;;4.40;4.00;;;5.40;52.60;5.30;97503.00;;;;4942366;28;20197;-85
2022/03/23 03:38:40;;;;;;;7.03;4.67;;;6.10;52.90;5.30;97518.00;;;;4944341;28;20259;-85
2022/03/23 03:41:07;;;;;;;6.93;5.03;;;5.60;52.90;5.20;97523.00;;;;4943927;28;20189;-85
2022/03/23 03:43:35;;;;;;;5.67;4.57;;;6.10;53.40;5.20;97523.00;;;;4943601;28;20201;-85
2022/03/23 03:46:06;;;;;;;6.00;5.00;;;5.30;53.20;5.20;97514.00;;;;4944466;28;20228;-85
2022/03/23 03:48:35;;;;;;;4.93;4.00;;;5.40;53.40;5.20;97525.00;;;;4943902;29;20200;-85
2022/03/23 03:51:03;;;;;;;7.57;4.53;;;5.30;53.30;5.20;97518.00;;;;4945446;28;20229;-85
2022/03/23 03:53:30;;;;;;;4.80;4.30;;;5.30;53.30;5.20;97514.00;;;;4944758;29;20203;-85
2022/03/23 03:55:57;;;;;;;4.63;4.00;;;5.40;54.00;5.10;97533.00;;;;4943952;28;20197;-85
2022/03/23 03:58:24;;;;;;;6.63;4.27;;;5.30;53.40;5.10;97532.00;;;;4942459;28;20205;-85
2022/03/23 04:00:52;;;;;;;5.47;4.67;;;5.30;53.50;5.10;97526.00;;;;4943320;28;20273;-85
2022/03/23 04:03:19;;;;;;;7.07;4.63;;;5.20;53.40;5.00;97528.00;;;;4944364;28;20201;-85
2022/03/23 04:05:48;;;;;;;4.63;4.17;;;5.80;53.80;5.00;97523.00;;;;4944793;28;20224;-85
2022/03/23 04:08:15;;;;;;;5.67;4.70;;;5.10;53.50;5.00;97530.00;;;;4943507;28;20228;-85
2022/03/23 04:10:42;;;;;;;5.40;4.13;;;5.10;54.00;5.00;97530.00;;;;4944640;28;20620;-85
2022/03/23 04:13:09;;;;;;;4.93;4.27;;;5.10;53.50;5.00;97526.00;;;;4951635;28;20201;-85
2022/03/23 04:15:37;;;;;;;5.87;4.47;;;5.10;53.50;5.00;97537.00;;;;4942766;28;20212;-85
2022/03/23 04:18:05;;;;;;;6.37;4.83;;;5.10;53.60;4.90;97525.00;;;;4933495;28;20193;-85
2022/03/23 04:20:32;;;;;;;5.07;4.57;;;5.00;53.70;4.90;97535.00;;;;4944320;28;20473;-84
2022/03/23 04:23:01;;;;;;;5.30;4.80;;;5.00;53.70;4.90;97527.00;;;;4944800;28;20213;-85
2022/03/23 04:25:28;;;;;;;6.53;4.50;;;5.00;53.80;4.90;97536.00;;;;4945291;28;20224;-85
2022/03/23 04:27:58;;;;;;;4.97;4.40;;;5.00;53.90;4.90;97536.00;;;;4942358;28;20232;-85
2022/03/23 04:30:31;;;;;;;6.77;4.10;;;5.00;54.10;4.90;97533.00;;;;4944507;28;20452;-85
2022/03/23 04:33:00;;;;;;;5.23;4.53;;;5.90;54.60;4.80;97533.00;;;;4943828;28;21005;-85
2022/03/23 04:35:28;;;;;;;4.33;3.93;;;5.80;54.40;4.80;97533.00;;;;4943556;28;20223;-84
2022/03/23 04:37:55;;;;;;;4.73;3.83;;;4.90;54.10;4.80;97535.00;;;;4932379;29;20197;-85
2022/03/23 04:40:24;;;;;;;4.43;3.53;;;6.00;54.70;4.80;97533.00;;;;4936560;28;20504;-85
2022/03/23 04:42:52;;;;;;;6.47;3.90;;;4.90;54.30;4.80;97539.00;;;;4941485;28;20444;-85
2022/03/23 04:45:20;;;;;;;4.53;4.13;;;5.00;54.40;4.80;97533.00;;;;4941654;28;20488;-85
2022/03/23 04:47:47;;;;;;;6.10;4.70;;;5.50;54.90;4.80;97545.00;;;;4939114;28;21090;-85
2022/03/23 04:50:16;;;;;;;5.90;4.47;;;5.00;55.00;4.80;97547.00;;;;4941387;28;20487;-85
2022/03/23 04:52:47;;;;;;;5.43;4.17;;;4.90;55.10;4.80;97552.00;;;;4944549;28;20208;-85
2022/03/23 04:55:16;;;;;;;4.70;3.97;;;4.80;55.00;4.80;97541.00;;;;4944973;28;20217;-85
2022/03/23 04:57:46;;;;;;;5.63;4.07;;;4.90;55.00;4.80;97554.00;;;;4943460;28;20592;-86
2022/03/23 05:00:17;;;;;;;6.30;4.27;;;4.80;54.90;4.70;97548.00;;;;4964190;28;20259;-85
2022/03/23 05:02:45;;;;;;;4.60;3.80;;;4.90;54.90;4.70;97551.00;;;;4950349;29;20271;-86
2022/03/23 05:05:13;;;;;;;5.03;3.97;;;5.00;54.90;4.70;97551.00;;;;4939413;28;20530;-84
2022/03/23 05:07:42;;;;;;;5.43;3.97;;;4.80;54.80;4.70;97554.00;;;;4940674;28;20471;-85
2022/03/23 05:10:12;;;;;;;4.47;4.00;;;4.80;54.80;4.70;97558.00;;;;4944336;29;20449;-85
2022/03/23 05:12:40;;;;;;;6.23;4.20;;;4.80;54.90;4.70;97560.00;;;;4942812;28;20451;-86
2022/03/23 05:15:10;;;;;;;5.20;3.90;;;4.80;54.90;4.70;97563.00;;;;4944365;28;20460;-85
2022/03/23 05:17:38;;;;;;;6.50;4.30;;;4.80;55.10;4.70;97558.00;;;;4940770;28;20621;-85
2022/03/23 05:20:09;;;;;;;5.07;3.97;;;4.80;55.00;4.70;97563.00;;;;4941163;29;20228;-84
2022/03/23 05:22:37;;;;;;;5.83;4.33;;;4.80;55.00;4.70;97574.00;;;;4939748;28;21947;-85
2022/03/23 05:25:05;;;;;;;4.40;4.00;;;5.00;55.10;4.70;97577.00;;;;4937391;28;20217;-84
2022/03/23 05:27:34;;;;;;;4.83;4.17;;;4.80;55.20;4.70;97575.00;;;;4934806;28;20543;-85
2022/03/23 05:30:02;;;;;;;6.17;4.33;;;4.80;55.20;4.70;97571.00;;;;4932714;28;20449;-83
2022/03/23 05:32:31;;;;;;;5.73;4.30;;;5.50;56.20;4.70;97569.00;;;;4931695;28;20204;-85
2022/03/23 05:34:58;;;;;;;5.80;4.73;;;4.80;55.30;4.80;97574.00;;;;4932143;28;20224;-85
2022/03/23 05:37:25;;;;;;;5.90;4.60;;;4.80;55.30;4.80;97580.00;;;;4934435;28;20436;-86
2022/03/23 05:39:52;;;;;;;5.73;4.23;;;4.80;55.30;4.80;97569.00;;;;4933749;28;20469;-86
2022/03/23 05:42:20;;;;;;;5.80;4.37;;;4.80;55.40;4.80;97583.00;;;;4933407;28;20208;-86
2022/03/23 05:44:47;;;;;;;6.13;4.70;;;4.80;55.50;4.90;97583.00;;;;4931998;28;20594;-86
2022/03/23 05:47:14;;;;;;;5.47;4.60;;;4.80;55.40;4.90;97584.00;;;;4931433;28;20443;-85
2022/03/23 05:49:43;;;;;;;6.63;4.83;;;4.80;55.40;4.90;97582.00;;;;4932946;28;20559;-85
2022/03/23 05:52:10;;;;;;;6.93;4.70;;;4.80;55.40;4.90;97585.00;;;;4932746;28;20700;-85
2022/03/23 05:54:37;;;;;;;9.00;4.97;;;4.80;55.40;4.90;97589.00;;;;4932393;28;21036;-85
2022/03/23 05:57:05;;;;;;;7.30;4.90;;;4.80;55.40;4.90;97584.00;;;;4931652;28;20463;-84
2022/03/23 05:59:32;;;;;;;6.10;4.47;;;4.80;55.50;5.00;97580.00;;;;4931622;28;20228;-86
2022/03/23 06:02:00;;;;;;;6.83;4.90;;;5.60;55.90;5.00;97583.00;;;;4933456;28;20556;-85
2022/03/23 06:04:28;;;;;;;6.93;4.73;;;4.80;55.50;5.00;97583.00;;;;4931689;28;20299;-86
2022/03/23 06:06:57;;;;;;;7.10;4.90;;;4.90;55.60;5.00;97596.00;;;;4933419;28;20262;-85
2022/03/23 06:09:24;;;;;;;8.93;4.93;;;4.90;55.60;5.00;97590.00;;;;4932822;28;20565;-85
2022/03/23 06:11:51;;;;;;;6.67;5.60;;;4.90;55.60;5.10;97587.00;;;;4934603;28;20228;-85
2022/03/23 06:14:18;;;;;;;7.50;5.27;;;5.50;56.00;5.10;97588.00;;;;4935214;28;20255;-85
2022/03/23 06:16:45;;;;;;;14.40;5.30;;;5.00;55.90;5.10;97600.00;;;;4931766;28;20235;-85
2022/03/23 06:19:13;;;;;;;6.27;5.23;;;5.50;56.20;5.20;97605.00;;;;4934266;28;20205;-85
2022/03/23 06:21:42;;;;;;;5.87;4.97;;;5.00;55.90;5.20;97596.00;;;;4932465;28;20205;-85
2022/03/23 06:24:10;;;;;;;6.57;5.70;;;5.10;56.00;5.20;97598.00;;;;4932146;28;20244;-87
2022/03/23 06:26:38;;;;;;;6.90;5.40;;;5.10;56.00;5.30;97598.00;;;;4932870;28;20284;-85
2022/03/23 06:29:06;;;;;;;9.43;5.80;;;5.10;55.90;5.30;97600.00;;;;4931371;28;20536;-86
2022/03/23 06:31:33;;;;;;;8.80;5.67;;;5.20;55.80;5.40;97607.00;;;;4932139;28;20661;-85
2022/03/23 06:34:00;;;;;;;9.33;5.60;;;5.30;56.50;5.40;97603.00;;;;4930454;29;20883;-85
2022/03/23 06:36:27;;;;;;;6.27;5.60;;;5.30;56.00;5.40;97600.00;;;;4931486;29;20654;-86
2022/03/23 06:38:55;;;;;;;7.60;5.50;;;5.30;56.00;5.50;97611.00;;;;4932571;28;20203;-89
2022/03/23 06:41:23;;;;;;;6.17;5.30;;;5.40;56.10;5.60;97611.00;;;;4933542;28;20271;-87
2022/03/23 06:43:50;;;;;;;7.40;5.30;;;5.40;56.10;5.60;97619.00;;;;4935120;28;20256;-87
2022/03/23 06:46:17;;;;;;;8.57;5.37;;;5.50;56.10;5.70;97615.00;;;;4935262;28;20287;-85
2022/03/23 06:48:45;;;;;;;8.57;5.63;;;5.50;56.10;5.70;97618.00;;;;4934626;28;20210;-87
2022/03/23 06:51:13;;;;;;;8.83;5.63;;;5.60;56.00;5.80;97615.00;;;;4934836;28;20205;-88
2022/03/23 06:53:40;;;;;;;7.40;5.37;;;5.60;56.10;5.80;97610.00;;;;4935478;28;20557;-88
2022/03/23 06:56:07;;;;;;;9.13;6.63;;;5.60;56.10;5.90;97620.00;;;;4935629;28;20626;-89
2022/03/23 06:58:37;;;;;;;9.17;6.30;;;5.80;56.20;6.00;97619.00;;;;4935008;28;20243;-87
2022/03/23 07:01:04;;;;;;;7.30;6.03;;;5.80;55.80;6.00;97617.00;;;;4935506;28;20256;-87
2022/03/23 07:03:31;;;;;;;7.77;5.37;;;5.90;55.90;6.10;97626.00;;;;4935593;28;20269;-89
2022/03/23 07:05:59;;;;;;;7.80;6.30;;;6.60;56.10;6.20;97628.00;;;;4935938;28;20205;-86
2022/03/23 07:11:10;;;;;;;9.03;6.43;;;6.10;55.50;6.30;97633.00;;;;4935045;29;20664;-87
2022/03/23 07:13:39;;;;;;;8.67;6.10;;;6.10;55.30;6.40;97634.00;;;;4934836;28;20710;-87
2022/03/23 07:16:06;;;;;;;9.60;6.00;;;6.20;55.30;6.40;97628.00;;;;4932386;28;20300;-87
2022/03/23 07:18:34;;;;;;;9.73;6.27;;;6.30;55.20;6.50;97631.00;;;;4933989;28;20292;-85
2022/03/23 07:21:04;;;;;;;10.00;6.00;;;6.40;55.40;6.70;97646.00;;;;4935031;28;20243;-85
2022/03/23 07:23:31;;;;;;;10.13;6.23;;;6.40;55.40;6.80;97642.00;;;;4935039;28;20251;-87
2022/03/23 07:25:59;;;;;;;8.13;6.50;;;6.60;55.30;6.90;97647.00;;;;4933107;28;20284;-86
2022/03/23 07:28:26;;;;;;;8.83;6.27;;;6.70;55.20;7.00;97648.00;;;;4934389;28;20201;-86
2022/03/23 07:30:55;;;;;;;6.67;5.70;;;6.90;55.20;7.10;97652.00;;;;4922164;28;20205;-90
2022/03/23 07:33:23;;;;;;;11.20;6.53;;;6.90;55.00;7.20;97640.00;;;;4936924;28;20650;-84
2022/03/23 07:35:50;;;;;;;9.27;6.50;;;7.00;54.70;7.30;97653.00;;;;4934552;29;20243;-86
2022/03/23 07:38:17;;;;;;;8.03;6.03;;;7.10;54.60;7.50;97644.00;;;;4934431;29;20197;-86
2022/03/23 07:40:44;;;;;;;8.37;6.00;;;7.20;54.50;7.60;97654.00;;;;4932210;28;20221;-85
2022/03/23 07:43:12;;;;;;;10.37;6.53;;;7.40;54.50;7.80;97652.00;;;;4932618;28;20280;-86
2022/03/23 07:45:39;;;;;;;6.07;5.43;;;7.50;54.40;8.10;97651.00;;;;4932928;28;20221;-85
2022/03/23 07:48:08;;;;;;;9.73;6.17;;;7.70;54.20;8.30;97666.00;;;;4933860;28;20204;-86
2022/03/23 07:50:35;;;;;;;6.83;5.93;;;7.90;54.20;8.60;97660.00;;;;5008454;28;20561;-84
2022/03/23 07:53:03;;;;;;;9.40;6.37;;;8.10;54.20;8.90;97670.00;;;;5034321;28;20206;-85
2022/03/23 07:55:31;;;;;;;7.90;6.30;;;8.40;54.40;9.10;97668.00;;;;5033654;28;20217;-86
2022/03/23 07:57:58;;;;;;;8.87;6.43;;;8.60;54.40;9.40;97668.00;;;;5034592;28;20248;-86
2022/03/23 08:00:25;;;;;;;8.47;6.70;;;8.80;54.10;9.70;97673.00;;;;5034941;28;20225;-86
2022/03/23 08:02:52;;;;;;;9.80;7.30;;;9.00;53.80;10.00;97674.00;;;;4953742;28;20240;-85
2022/03/23 08:05:21;;;;;;;7.97;6.20;;;9.30;53.40;10.20;97675.00;;;;4934695;28;20628;-86
2022/03/23 08:07:48;;;;;;;8.77;6.27;;;9.60;53.30;10.50;97680.00;;;;4934681;29;20211;-85
2022/03/23 08:10:15;;;;;;;9.20;6.40;;;9.80;53.80;10.80;97675.00;;;;5028926;28;20384;-86
2022/03/23 08:12:42;;;;;;;8.03;6.37;;;10.10;53.20;11.10;97679.00;;;;5033363;28;20198;-85
2022/03/23 08:15:10;;;;;;;7.80;5.93;;;10.40;52.90;11.30;97690.00;;;;5034827;28;20244;-86
2022/03/23 08:17:38;;;;;;;6.90;6.20;;;10.60;52.50;11.60;97697.00;;;;5034276;28;20296;-86
2022/03/23 08:22:54;;;;;;;6.87;6.17;;;11.10;51.90;12.20;97702.00;;;;5034410;28;20259;-86
2022/03/23 08:25:21;;;;;;;7.30;6.17;;;11.40;51.80;12.50;97711.00;;;;5033991;28;20227;-85
2022/03/23 08:27:48;;;;;;;7.57;6.27;;;11.60;51.40;12.80;97707.00;;;;5034385;28;20303;-84
2022/03/23 08:30:19;;;;;;;7.30;6.60;;;11.80;51.10;13.10;97702.00;;;;5006689;28;20193;-86
2022/03/23 08:32:52;;;;;;;6.83;6.13;;;12.10;50.90;13.40;97720.00;;;;4934234;28;20197;-86
2022/03/23 08:35:19;;;;;;;7.43;6.60;;;12.40;50.70;13.70;97712.00;;;;4933970;29;20665;-86
2022/03/23 08:37:48;;;;;;;8.27;7.03;;;12.60;50.50;14.10;97724.00;;;;4933435;28;20254;-84
2022/03/23 08:40:16;;;;;;;7.37;6.67;;;12.90;49.70;14.50;97722.00;;;;4933019;28;20220;-86
2022/03/23 08:42:43;;;;;;;7.17;6.47;;;13.10;49.90;14.90;97724.00;;;;4933379;29;20196;-87
2022/03/23 08:45:11;;;;;;;7.83;6.13;;;13.40;49.90;15.40;97726.00;;;;4933290;28;20656;-85
2022/03/23 08:47:39;;;;;;;8.37;7.00;;;13.70;49.80;15.80;97730.00;;;;4933824;28;20954;-86
2022/03/23 08:50:09;;;;;;;7.20;6.27;;;14.10;49.00;16.20;97730.00;;;;4933426;28;20243;-84
2022/03/23 08:52:38;;;;;;;8.30;6.67;;;14.40;49.10;16.60;97730.00;;;;4933206;28;20296;-86
2022/03/23 08:55:09;;;;;;;6.83;6.13;;;14.80;48.60;16.90;97728.00;;;;4932888;28;20260;-86
2022/03/23 08:57:38;;;;;;;7.53;6.27;;;15.20;48.30;17.20;97728.00;;;;4933278;28;20185;-86
2022/03/23 09:00:07;;;;;;;8.50;6.43;;;15.60;48.00;17.50;97728.00;;;;4932290;28;20207;-84
2022/03/23 09:02:34;;;;;;;7.00;6.40;;;16.10;47.80;17.80;97726.00;;;;4932055;28;20610;-86
2022/03/23 09:05:02;;;;;;;7.37;6.23;;;16.60;47.30;18.10;97721.00;;;;4932950;28;20303;-86
2022/03/23 09:07:29;;;;;;;7.30;6.50;;;17.10;47.10;18.40;97722.00;;;;4933534;28;20287;-86
2022/03/23 09:09:56;;;;;;;8.33;6.37;;;17.70;46.60;18.80;97728.00;;;;4933378;28;20288;-86
2022/03/23 09:12:23;;;;;;;10.67;7.50;;;18.40;46.10;19.10;97734.00;;;;4933477;28;20243;-86
2022/03/23 09:14:52;;;;;;;7.97;6.63;;;19.00;44.30;19.50;97730.00;;;;4933425;28;20225;-86
2022/03/23 09:17:22;;;;;;;8.03;6.63;;;19.50;43.80;19.90;97727.00;;;;4935507;28;20221;-86
2022/03/23 09:19:49;;;;;;;7.60;6.60;;;20.10;43.30;20.20;97741.00;;;;4935330;28;20869;-87
2022/03/23 09:22:21;;;;;;;7.00;6.30;;;20.60;42.80;20.50;97743.00;;;;4934173;28;20642;-86
2022/03/23 09:24:50;;;;;;;8.27;6.40;;;21.20;42.10;20.80;97739.00;;;;4932832;29;20217;-86
2022/03/23 09:27:17;;;;;;;6.93;6.30;;;21.70;41.70;21.20;97747.00;;;;4915172;28;20210;-87
2022/03/23 09:29:49;;;;;;;7.07;6.43;;;22.10;41.00;21.50;97749.00;;;;4929022;28;20288;-87
2022/03/23 09:32:17;;;;;;;7.50;6.80;;;22.50;39.50;21.70;97756.00;;;;4934951;28;20197;-87
2022/03/23 09:34:46;;;;;;;8.37;6.73;;;22.80;38.60;21.90;97755.00;;;;5031811;28;20225;-87
2022/03/23 09:43:39;;;;;;;6.93;6.13;;;23.30;36.60;22.50;97772.00;;;;4908442;28;20286;-87
2022/03/23 09:46:16;;;;;;;8.80;7.13;;;23.50;37.50;22.60;97760.00;;;;4975564;28;20270;-87
2022/03/23 09:48:46;;;;;;;6.87;6.30;;;23.60;36.10;22.80;97767.00;;;;4937123;28;20204;-86
2022/03/23 09:51:21;;;;;;;8.03;7.10;;;23.70;35.50;22.90;97756.00;;;;4941980;28;20193;-87
2022/03/23 09:53:52;;;;;;;7.60;6.80;;;23.70;35.10;23.00;97755.00;;;;4942716;28;20221;-87
2022/03/23 09:56:20;;;;;;;7.07;6.47;;;23.60;34.80;23.00;97758.00;;;;4945410;29;20208;-86
2022/03/23 09:58:47;;;;;;;7.30;6.60;;;23.60;34.50;23.00;97755.00;;;;4951988;29;20742;-85
2022/03/23 10:02:38;;;;;;;7.63;6.93;;;23.50;34.30;23.00;97745.00;;;;4930420;28;20833;-87
2022/03/23 10:06:03;;;;;;;6.40;5.80;;;23.40;33.30;22.90;97749.00;;;;4914076;29;20314;-86
2022/03/23 10:09:12;;;;;;;7.33;6.23;;;23.30;34.30;22.80;97746.00;;;;4913561;28;20300;-87
2022/03/23 10:12:39;;;;;;;6.77;6.17;;;23.20;34.10;22.80;97752.00;;;;4914105;28;20197;-86
2022/03/23 10:16:04;;;;;;;6.60;6.00;;;23.10;33.80;22.60;97740.00;;;;4946636;28;20275;-87
2022/03/23 10:18:53;;;;;;;7.00;6.27;;;23.10;34.00;22.60;97741.00;;;;4914795;28;20265;-86
2022/03/23 10:21:24;;;;;;;7.23;6.37;;;23.20;34.30;22.60;97734.00;;;;4913975;29;20309;-87
2022/03/23 10:24:07;;;;;;;8.97;6.30;;;23.30;34.60;22.70;97730.00;;;;4915969;29;20217;-89
2022/03/23 10:26:37;;;;;;;7.57;6.73;;;23.40;34.20;22.80;97733.00;;;;4906362;29;20205;-88
2022/03/23 10:29:11;;;;;;;6.53;5.93;;;23.60;34.20;22.80;97722.00;;;;4914071;28;20248;-88
2022/03/23 10:31:38;;;;;;;6.33;5.83;;;23.80;33.90;22.90;97723.00;;;;4931224;29;20758;-87
2022/03/23 10:34:10;;;;;;;6.43;5.87;;;24.00;33.80;23.00;97733.00;;;;4933921;28;20216;-87
2022/03/23 10:36:52;;;;;;;6.87;6.17;;;24.10;33.40;23.10;97728.00;;;;4926963;28;20418;-88
2022/03/23 10:39:27;;;;;;;6.83;6.23;;;24.30;33.10;23.20;97722.00;;;;4913492;29;20182;-87
2022/03/23 10:41:59;;;;;;;7.67;7.00;;;24.40;33.00;23.30;97717.00;;;;4915305;29;20719;-88
2022/03/23 10:44:27;;;;;;;7.07;6.30;;;24.60;31.90;23.40;97726.00;;;;4920415;28;20734;-88
2022/03/23 10:46:58;;;;;;;7.67;6.33;;;24.60;32.30;23.40;97718.00;;;;4933909;28;20278;-87
2022/03/23 10:49:36;;;;;;;8.47;6.27;;;24.70;32.20;23.50;97718.00;;;;4935085;29;20209;-87
2022/03/23 10:52:16;;;;;;;7.43;6.63;;;24.80;31.90;23.50;97712.00;;;;4935008;29;20215;-89
2022/03/23 10:54:56;;;;;;;7.80;7.00;;;24.90;31.50;23.60;97710.00;;;;4936643;28;20282;-89
2022/03/23 10:58:25;;;;;;;6.67;6.07;;;24.90;30.00;23.40;97702.00;;;;4936607;28;20217;-89
2022/03/23 11:00:56;;;;;;;8.67;7.77;;;24.80;30.00;23.30;97707.00;;;;4927229;28;20486;-89
2022/03/23 11:03:40;;;;;;;6.90;6.20;;;24.50;30.70;23.10;97697.00;;;;4936803;28;20611;-89
2022/03/23 11:06:12;;;;;;;9.83;7.33;;;24.30;30.00;23.00;97688.00;;;;4937318;28;20221;-89
2022/03/23 11:08:43;;;;;;;7.53;6.40;;;23.90;30.60;22.80;97683.00;;;;4933560;28;20209;-90
2022/03/23 11:16:48;;;;;;;7.20;6.50;;;23.00;31.20;22.30;97674.00;;;;4934670;29;20236;-88
2022/03/23 11:19:19;;;;;;;7.80;7.00;;;22.70;31.10;22.10;97663.00;;;;4935711;28;20303;-89
2022/03/23 11:22:06;;;;;;;7.53;6.77;;;22.40;31.60;21.90;97663.00;;;;4934860;29;20866;-89
2022/03/23 11:24:37;;;;;;;10.27;7.40;;;22.20;31.60;21.80;97664.00;;;;4933799;29;20232;-89
2022/03/23 11:27:06;;;;;;;7.97;7.17;;;21.90;31.60;21.60;97657.00;;;;4936058;29;20202;-88
2022/03/23 11:29:34;;;;;;;7.63;6.63;;;21.70;32.00;21.40;97659.00;;;;4938708;28;20295;-88
2022/03/23 11:32:11;;;;;;;7.97;7.17;;;21.50;32.30;21.30;97652.00;;;;4936098;28;20211;-89
2022/03/23 11:34:40;;;;;;;7.70;6.97;;;21.30;32.70;21.30;97648.00;;;;4934960;29;20648;-89
2022/03/23 11:37:09;;;;;;;7.47;6.60;;;21.20;33.10;21.20;97654.00;;;;4934741;28;20234;-86
2022/03/23 11:39:38;;;;;;;8.67;7.37;;;21.10;33.00;21.10;97656.00;;;;4934612;28;20572;-88
2022/03/23 11:42:06;;;;;;;7.73;6.93;;;21.00;32.90;21.10;97653.00;;;;4935172;28;20258;-86
2022/03/23 11:44:34;;;;;;;7.60;6.90;;;20.90;33.60;21.00;97649.00;;;;4934348;28;20256;-88